Terminal Aerodrome Forecast
Issued by NWS

Home | Current Version | Previous Version | Graphics & Text | Print | Product List | Glossary Off
Versions: 1 2 3 4 5 6 7 8 9 10 11 12 13 14 15 16 17 18 19 20 21 22 23 24 25 26 27 28 29 30 31 32 33 34 35 36 37 38 39 40 41 42 43 44 45 46 47 48 49 50

523
FTUS43 KDDC 281308 AAA
TAFGCK
TAF AMD
KGCK 281308Z 2813/2912 12009KT 2SM BR OVC004
     FM281600 11018KT 3SM -SHRA BR OVC007
     FM282100 10018KT 1SM SHRA BR VCTS OVC003CB
     FM290300 09018KT 1/2SM SHRA FG OVC003=

USA.gov is the U.S. government's official web portal to all federal, state and local government web resources and services.